createdAt,value
2017-09-07T00:02:07.847Z,71.50
2017-09-07T00:04:35.301Z,71.70
2017-09-07T00:07:02.803Z,71.40
2017-09-07T00:09:30.273Z,71.60
2017-09-07T00:11:57.745Z,71.50
2017-09-07T00:14:25.271Z,71.90
2017-09-07T00:16:52.854Z,71.90
2017-09-07T00:19:20.308Z,71.90
2017-09-07T00:21:47.802Z,71.90
2017-09-07T00:24:15.274Z,71.90
2017-09-07T00:27:13.295Z,71.70
2017-09-07T00:29:41.522Z,72.00
2017-09-07T00:32:09.016Z,72.00
2017-09-07T00:34:37.299Z,72.90
2017-09-07T00:37:05.547Z,72.60
2017-09-07T00:39:33.010Z,72.20
2017-09-07T00:42:00.586Z,72.40
2017-09-07T00:44:28.049Z,72.40
2017-09-07T00:46:56.318Z,72.50
2017-09-07T00:49:24.608Z,72.60
2017-09-07T00:51:52.168Z,72.40
2017-09-07T00:54:19.650Z,72.60
2017-09-07T00:56:47.122Z,72.50
2017-09-07T00:59:14.576Z,72.50
2017-09-07T01:01:42.033Z,72.60
2017-09-07T01:04:09.539Z,73.40
2017-09-07T01:06:37.766Z,72.90
2017-09-07T01:09:05.365Z,72.40
2017-09-07T01:11:32.838Z,72.70
2017-09-07T01:14:01.083Z,73.20
2017-09-07T01:16:28.648Z,72.40
2017-09-07T01:18:56.108Z,72.50
2017-09-07T01:21:23.585Z,72.50
2017-09-07T01:23:51.897Z,72.60
2017-09-07T01:26:19.405Z,72.50
2017-09-07T01:28:46.963Z,72.70
2017-09-07T01:31:14.417Z,72.80
2017-09-07T01:33:41.880Z,73.00
2017-09-07T01:36:10.149Z,73.30
2017-09-07T01:38:37.625Z,73.10
2017-09-07T01:41:05.884Z,73.60
2017-09-07T01:43:33.345Z,73.40
2017-09-07T01:46:01.671Z,73.70
2017-09-07T01:48:41.253Z,73.60
2017-09-07T01:51:08.722Z,73.90
2017-09-07T01:53:36.962Z,74.90
2017-09-07T01:56:04.540Z,74.20
2017-09-07T01:58:32.013Z,74.00
2017-09-07T02:01:00.272Z,74.40
2017-09-07T02:03:27.733Z,74.30
2017-09-07T02:05:56.010Z,74.30
2017-09-07T02:08:24.245Z,75.20
2017-09-07T02:10:51.738Z,74.60
2017-09-07T02:13:19.987Z,74.90
2017-09-07T02:15:47.482Z,74.70
2017-09-07T02:18:15.744Z,75.60
2017-09-07T02:20:43.250Z,75.00
2017-09-07T02:23:10.757Z,75.20
2017-09-07T02:25:38.223Z,75.30
2017-09-07T02:28:06.465Z,75.20
2017-09-07T02:30:33.953Z,75.20
2017-09-07T02:33:02.230Z,75.90
2017-09-07T02:35:30.505Z,76.40
2017-09-07T02:37:57.981Z,75.40
2017-09-07T02:40:26.226Z,75.50
2017-09-07T02:42:53.795Z,75.40
2017-09-07T02:45:21.298Z,75.50
2017-09-07T02:47:48.774Z,75.10
2017-09-07T02:50:16.266Z,75.80
2017-09-07T02:52:44.537Z,75.80
2017-09-07T02:55:12.782Z,76.30
2017-09-07T02:57:40.248Z,75.60
2017-09-07T03:00:07.729Z,75.70
2017-09-07T03:02:36.002Z,75.60
2017-09-07T03:05:03.488Z,76.20
2017-09-07T03:07:30.961Z,76.30
2017-09-07T03:09:58.529Z,76.40
2017-09-07T03:12:26.034Z,76.50
2017-09-07T03:14:54.272Z,76.40
2017-09-07T03:17:21.819Z,76.30
2017-09-07T03:19:49.285Z,76.40
2017-09-07T03:22:16.762Z,76.60
2017-09-07T03:24:44.342Z,76.70
2017-09-07T03:27:12.592Z,76.50
2017-09-07T03:29:40.060Z,76.50
2017-09-07T03:32:07.571Z,76.60
2017-09-07T03:34:35.037Z,76.90
2017-09-07T03:37:02.509Z,77.00
2017-09-07T03:39:30.055Z,77.20
2017-09-07T03:41:57.616Z,77.40
2017-09-07T03:44:25.229Z,77.50
2017-09-07T03:46:53.457Z,78.60
2017-09-07T03:49:20.945Z,77.60
2017-09-07T03:51:48.534Z,77.80
2017-09-07T03:54:16.781Z,77.90
2017-09-07T03:56:44.246Z,77.80
2017-09-07T03:59:12.542Z,77.90
2017-09-07T04:01:40.786Z,77.80
2017-09-07T04:04:08.354Z,77.80
2017-09-07T04:06:36.594Z,78.00
2017-09-07T04:09:04.071Z,77.90
2017-09-07T04:11:31.541Z,77.90
2017-09-07T04:13:59.793Z,78.00
2017-09-07T04:16:28.102Z,78.70
2017-09-07T04:18:56.344Z,77.80
2017-09-07T04:21:23.837Z,77.70
2017-09-07T04:23:52.086Z,77.90
2017-09-07T04:26:19.657Z,77.90
2017-09-07T04:28:47.122Z,78.70
2017-09-07T04:31:15.371Z,77.70
2017-09-07T04:33:43.075Z,77.50
2017-09-07T04:36:11.690Z,77.30
2017-09-07T04:38:39.455Z,77.20
2017-09-07T04:41:07.022Z,77.40
2017-09-07T04:43:34.492Z,77.50
2017-09-07T04:46:02.181Z,77.50
2017-09-07T04:48:30.414Z,78.30
2017-09-07T04:50:57.990Z,77.20
2017-09-07T04:53:25.569Z,77.20
2017-09-07T04:55:53.080Z,77.40
2017-09-07T04:58:20.542Z,77.80
2017-09-07T05:00:48.132Z,77.60
2017-09-07T05:03:15.707Z,77.20
2017-09-07T05:05:43.966Z,76.90
2017-09-07T05:08:11.443Z,76.90
2017-09-07T05:10:39.693Z,77.00
2017-09-07T05:13:07.356Z,76.90
2017-09-07T05:15:34.908Z,76.80
2017-09-07T05:18:02.394Z,76.60
2017-09-07T05:20:30.715Z,76.70
2017-09-07T05:22:58.188Z,76.60
2017-09-07T05:25:25.666Z,76.50
2017-09-07T05:27:53.136Z,76.40
2017-09-07T05:30:21.385Z,76.10
2017-09-07T05:32:48.854Z,76.00
2017-09-07T05:35:16.679Z,76.20
2017-09-07T05:37:44.139Z,76.20
2017-09-07T05:40:11.601Z,75.90
2017-09-07T05:42:39.078Z,76.00
2017-09-07T05:45:06.589Z,76.20
2017-09-07T05:47:34.057Z,76.20
2017-09-07T05:50:01.629Z,76.20
2017-09-07T05:52:29.139Z,76.80
2017-09-07T05:54:56.699Z,76.10
2017-09-07T05:57:24.930Z,75.90
2017-09-07T05:59:52.445Z,75.80
2017-09-07T06:02:20.688Z,75.40
2017-09-07T06:04:48.166Z,75.30
2017-09-07T06:07:16.435Z,75.60
2017-09-07T06:09:44.700Z,76.00
2017-09-07T06:12:12.171Z,75.70
2017-09-07T06:14:40.490Z,75.80
2017-09-07T06:17:07.981Z,75.70
2017-09-07T06:19:35.446Z,75.80
2017-09-07T06:22:03.721Z,76.00
2017-09-07T06:24:31.194Z,76.00
2017-09-07T06:26:59.447Z,75.40
2017-09-07T06:29:27.045Z,75.30
2017-09-07T06:31:55.280Z,74.50
2017-09-07T06:34:22.745Z,74.40
2017-09-07T06:36:50.259Z,74.60
2017-09-07T06:39:17.770Z,74.60
2017-09-07T06:41:46.032Z,75.40
2017-09-07T06:44:13.579Z,74.40
2017-09-07T06:46:41.072Z,74.90
2017-09-07T06:49:09.341Z,74.80
2017-09-07T06:51:37.615Z,74.40
2017-09-07T06:54:05.843Z,74.70
2017-09-07T06:56:33.320Z,74.60
2017-09-07T06:59:00.793Z,74.70
2017-09-07T07:01:28.266Z,74.20
2017-09-07T07:03:56.501Z,74.90
2017-09-07T07:06:23.960Z,74.20
2017-09-07T07:08:51.494Z,73.70
2017-09-07T07:11:18.954Z,73.80
2017-09-07T07:13:46.428Z,74.10
2017-09-07T07:16:13.917Z,74.00
2017-09-07T07:18:42.171Z,73.30
2017-09-07T07:21:09.660Z,73.20
2017-09-07T07:23:37.896Z,72.60
2017-09-07T07:26:05.482Z,72.50
2017-09-07T07:28:32.965Z,71.50
2017-09-07T07:31:00.434Z,71.80
2017-09-07T07:33:27.904Z,71.30
2017-09-07T07:35:55.373Z,71.50
2017-09-07T07:38:22.910Z,70.60
2017-09-07T07:40:50.366Z,71.10
2017-09-07T07:43:17.981Z,71.10
2017-09-07T07:45:45.487Z,70.70
2017-09-07T07:48:12.984Z,69.50
2017-09-07T07:50:40.451Z,69.70
2017-09-07T07:53:07.916Z,70.30
2017-09-07T07:55:35.383Z,70.60
2017-09-07T07:58:03.626Z,70.40
2017-09-07T08:00:31.091Z,70.30
2017-09-07T08:02:58.652Z,70.00
2017-09-07T08:05:26.125Z,69.80
2017-09-07T08:07:54.386Z,69.30
2017-09-07T08:10:21.861Z,69.30
2017-09-07T08:12:50.097Z,69.10
2017-09-07T08:15:17.553Z,69.10
2017-09-07T08:17:45.025Z,69.10
2017-09-07T08:20:12.506Z,69.30
2017-09-07T08:22:40.735Z,69.20
2017-09-07T08:25:08.226Z,69.00
2017-09-07T08:27:36.461Z,68.60
2017-09-07T08:30:03.937Z,68.60
2017-09-07T08:32:31.547Z,68.60
2017-09-07T08:34:59.038Z,68.20
2017-09-07T08:37:26.538Z,68.10
2017-09-07T08:39:54.797Z,67.00
2017-09-07T08:42:22.417Z,67.00
2017-09-07T08:44:49.936Z,67.10
2017-09-07T08:47:18.169Z,67.30
2017-09-07T08:49:45.656Z,67.10
2017-09-07T08:52:13.127Z,66.70
2017-09-07T08:54:41.542Z,66.50
2017-09-07T08:57:09.008Z,66.50
2017-09-07T08:59:36.512Z,66.00
2017-09-07T09:02:04.762Z,66.00
2017-09-07T09:04:32.224Z,65.80
2017-09-07T09:06:59.785Z,65.80
2017-09-07T09:09:27.286Z,66.80
2017-09-07T09:11:54.863Z,65.70
2017-09-07T09:14:22.360Z,65.60
2017-09-07T09:16:49.883Z,64.80
2017-09-07T09:19:17.457Z,65.20
2017-09-07T09:21:44.939Z,64.70
2017-09-07T09:24:12.420Z,63.70
2017-09-07T09:26:39.944Z,63.50
2017-09-07T09:29:07.436Z,63.10
2017-09-07T09:31:34.912Z,63.90
2017-09-07T09:34:02.413Z,62.90
2017-09-07T09:36:30.656Z,62.60
2017-09-07T09:38:58.158Z,62.50
2017-09-07T09:41:25.635Z,61.50
2017-09-07T09:43:53.857Z,60.70
2017-09-07T09:46:21.341Z,60.60
2017-09-07T09:48:48.923Z,60.90
2017-09-07T09:51:17.190Z,61.00
2017-09-07T09:53:45.430Z,61.50
2017-09-07T09:56:12.909Z,61.50
2017-09-07T09:58:40.373Z,62.40
2017-09-07T10:01:08.639Z,62.10
2017-09-07T10:03:36.158Z,62.10
2017-09-07T10:06:03.654Z,61.10
2017-09-07T10:08:31.138Z,61.90
2017-09-07T10:10:58.672Z,61.00
2017-09-07T10:13:26.140Z,60.20
2017-09-07T10:15:54.375Z,60.60
2017-09-07T10:18:21.859Z,60.40
2017-09-07T10:20:49.358Z,61.30
2017-09-07T10:23:16.840Z,62.00
2017-09-07T10:25:44.342Z,63.50
2017-09-07T10:28:12.583Z,64.90
2017-09-07T10:30:40.054Z,64.90
2017-09-07T10:33:07.530Z,65.40
2017-09-07T10:35:35.762Z,67.30
2017-09-07T10:38:03.242Z,66.80
2017-09-07T10:40:30.802Z,66.00
2017-09-07T10:42:58.356Z,65.70
2017-09-07T10:45:25.837Z,65.80
2017-09-07T10:47:54.089Z,62.40
2017-09-07T10:50:21.717Z,62.20
2017-09-07T10:52:49.218Z,60.70
2017-09-07T10:55:16.869Z,61.90
2017-09-07T10:57:44.357Z,61.80
2017-09-07T11:00:12.594Z,63.70
2017-09-07T11:02:40.061Z,63.50
2017-09-07T11:05:07.630Z,64.10
2017-09-07T11:07:35.177Z,65.10
2017-09-07T11:10:02.646Z,64.10
2017-09-07T11:12:30.926Z,62.70
2017-09-07T11:14:59.197Z,61.30
2017-09-07T11:17:26.668Z,61.20
2017-09-07T11:19:54.905Z,61.90
2017-09-07T11:22:22.365Z,61.40
2017-09-07T11:24:49.845Z,61.50
2017-09-07T11:27:18.246Z,61.90
2017-09-07T11:29:46.503Z,62.40
2017-09-07T11:32:13.969Z,62.30
2017-09-07T11:34:42.209Z,62.20
2017-09-07T11:37:09.676Z,62.10
2017-09-07T11:39:37.154Z,62.90
2017-09-07T11:42:05.418Z,63.40
2017-09-07T11:44:32.878Z,62.50
2017-09-07T11:47:00.430Z,63.70
2017-09-07T11:49:27.894Z,64.40
2017-09-07T11:51:56.120Z,65.70
2017-09-07T11:54:23.597Z,64.80
2017-09-07T11:56:51.129Z,64.70
2017-09-07T11:59:18.589Z,65.00
2017-09-07T12:01:46.090Z,65.00
2017-09-07T12:04:13.557Z,64.40
2017-09-07T12:06:41.857Z,64.90
2017-09-07T12:09:09.331Z,64.80
2017-09-07T12:11:36.834Z,65.20
2017-09-07T12:14:04.393Z,64.80
2017-09-07T12:16:31.850Z,64.60
2017-09-07T12:18:59.322Z,65.10
2017-09-07T12:21:26.805Z,64.70
2017-09-07T12:23:54.324Z,64.70
2017-09-07T12:26:21.793Z,64.40
2017-09-07T12:28:50.066Z,65.20
2017-09-07T12:31:18.317Z,67.30
2017-09-07T12:33:45.885Z,67.10
2017-09-07T12:36:13.349Z,69.00
2017-09-07T12:38:40.830Z,69.10
2017-09-07T12:41:09.061Z,70.20
2017-09-07T12:43:36.529Z,70.20
2017-09-07T12:46:04.098Z,70.90
2017-09-07T12:48:31.565Z,71.40
2017-09-07T12:50:59.837Z,70.70
2017-09-07T12:53:28.117Z,70.40
2017-09-07T12:55:56.369Z,69.60
2017-09-07T12:58:23.939Z,69.50
2017-09-07T13:00:51.397Z,69.40
2017-09-07T13:03:19.664Z,68.50
2017-09-07T13:05:47.222Z,68.40
2017-09-07T13:08:14.691Z,68.60
2017-09-07T13:10:42.932Z,70.00
2017-09-07T13:13:10.393Z,69.40
2017-09-07T13:15:37.875Z,69.80
2017-09-07T13:18:06.114Z,71.20
2017-09-07T13:20:33.585Z,71.20
2017-09-07T13:23:01.052Z,72.60
2017-09-07T13:25:28.625Z,73.80
2017-09-07T13:27:56.875Z,75.80
2017-09-07T13:30:24.346Z,75.80
2017-09-07T13:32:51.904Z,75.80
2017-09-07T13:35:19.378Z,76.40
2017-09-07T13:37:47.619Z,77.70
2017-09-07T13:40:15.092Z,77.70
2017-09-07T13:42:42.661Z,78.10
2017-09-07T13:45:10.946Z,79.20
2017-09-07T13:47:39.181Z,78.60
2017-09-07T13:50:06.650Z,78.50
2017-09-07T13:52:34.222Z,78.60
2017-09-07T13:55:01.687Z,79.20
2017-09-07T13:57:29.971Z,77.90
2017-09-07T13:59:58.206Z,77.50
2017-09-07T14:02:25.681Z,77.40
2017-09-07T14:04:53.250Z,76.40
2017-09-07T14:07:21.531Z,75.80
2017-09-07T14:09:49.850Z,75.80
2017-09-07T14:12:17.350Z,75.80
2017-09-07T14:14:44.911Z,75.00
2017-09-07T14:17:12.465Z,74.90
2017-09-07T14:19:39.924Z,74.40
2017-09-07T14:22:07.381Z,73.90
2017-09-07T14:24:34.944Z,75.10
2017-09-07T14:27:02.414Z,74.50
2017-09-07T14:29:30.654Z,75.70
2017-09-07T14:31:58.117Z,75.60
2017-09-07T14:34:25.640Z,75.50
2017-09-07T14:36:53.111Z,76.00
2017-09-07T14:39:20.606Z,76.50
2017-09-07T14:41:48.845Z,77.00
2017-09-07T14:44:16.329Z,76.60
2017-09-07T14:46:43.901Z,76.90
2017-09-07T14:49:11.368Z,77.00
2017-09-07T14:51:39.589Z,76.30
2017-09-07T14:54:07.046Z,76.20
2017-09-07T14:56:34.516Z,76.20
2017-09-07T14:59:01.970Z,76.00
2017-09-07T15:01:29.463Z,76.00
2017-09-07T15:03:57.682Z,75.60
2017-09-07T15:06:25.161Z,75.40
2017-09-07T15:08:52.626Z,75.00
2017-09-07T15:11:20.089Z,74.90
2017-09-07T15:13:47.550Z,74.30
2017-09-07T15:16:15.010Z,75.30
2017-09-07T15:18:43.286Z,73.70
2017-09-07T15:21:10.762Z,73.70
2017-09-07T15:23:38.307Z,73.20
2017-09-07T15:26:05.793Z,72.70
2017-09-07T15:28:33.253Z,73.10
2017-09-07T15:31:00.722Z,72.70
2017-09-07T15:33:28.177Z,72.80
2017-09-07T15:35:55.640Z,73.50
2017-09-07T15:38:23.103Z,73.80
2017-09-07T15:40:50.590Z,74.00
2017-09-07T15:43:18.055Z,73.80
2017-09-07T15:45:45.520Z,74.30
2017-09-07T15:48:13.788Z,74.50
2017-09-07T15:50:41.234Z,74.40
2017-09-07T15:53:08.710Z,73.40
2017-09-07T15:55:36.951Z,74.60
2017-09-07T15:58:04.431Z,74.40
2017-09-07T16:00:31.897Z,74.80
2017-09-07T16:02:59.438Z,74.70
2017-09-07T16:05:26.897Z,73.80
2017-09-07T16:07:54.367Z,73.80
2017-09-07T16:10:21.820Z,73.80
2017-09-07T16:12:50.085Z,74.30
2017-09-07T16:15:17.549Z,74.30
2017-09-07T16:17:45.813Z,75.20
2017-09-07T16:20:13.369Z,74.50
2017-09-07T16:22:40.994Z,74.30
2017-09-07T16:25:08.454Z,74.30
2017-09-07T16:27:36.062Z,74.30
2017-09-07T16:30:03.609Z,73.50
2017-09-07T16:32:31.854Z,72.40
2017-09-07T16:34:59.336Z,72.50
2017-09-07T16:37:26.795Z,70.60
2017-09-07T16:39:54.271Z,71.10
2017-09-07T16:42:22.496Z,70.80
2017-09-07T16:44:49.955Z,70.00
2017-09-07T16:47:17.441Z,69.00
2017-09-07T16:49:44.909Z,68.00
2017-09-07T16:52:12.384Z,68.20
2017-09-07T16:54:40.602Z,69.90
2017-09-07T16:57:08.085Z,69.80
2017-09-07T16:59:35.650Z,70.60
2017-09-07T17:02:03.206Z,70.80
2017-09-07T17:04:30.665Z,71.00
2017-09-07T17:06:58.130Z,71.50
2017-09-07T17:09:25.595Z,71.80
2017-09-07T17:11:53.853Z,72.70
2017-09-07T17:14:21.414Z,72.50
2017-09-07T17:16:48.901Z,72.60
2017-09-07T17:19:16.482Z,73.00
2017-09-07T17:21:43.942Z,73.20
2017-09-07T17:24:11.416Z,73.90
2017-09-07T17:26:38.897Z,73.90
2017-09-07T17:29:06.352Z,73.80
2017-09-07T17:31:33.809Z,74.10
2017-09-07T17:34:01.269Z,74.20
2017-09-07T17:36:28.833Z,73.40
2017-09-07T17:38:56.293Z,73.30
2017-09-07T17:41:24.526Z,73.80
2017-09-07T17:43:52.005Z,73.40
2017-09-07T17:46:19.491Z,72.70
2017-09-07T17:48:47.745Z,72.70
2017-09-07T17:51:15.311Z,72.60
2017-09-07T17:53:42.888Z,72.10
2017-09-07T17:56:11.135Z,71.70
2017-09-07T17:58:38.685Z,71.50
2017-09-07T18:01:06.318Z,71.30
2017-09-07T18:03:33.814Z,70.80
2017-09-07T18:06:02.196Z,70.90
2017-09-07T18:08:29.763Z,70.90
2017-09-07T18:10:57.996Z,71.50
2017-09-07T18:13:25.491Z,71.00
2017-09-07T18:15:53.753Z,71.50
2017-09-07T18:18:21.313Z,71.20
2017-09-07T18:20:48.793Z,71.40
2017-09-07T18:23:17.084Z,71.50
2017-09-07T18:25:44.619Z,71.50
2017-09-07T18:28:12.855Z,72.10
2017-09-07T18:30:40.322Z,71.20
2017-09-07T18:33:07.782Z,71.50
2017-09-07T18:35:35.249Z,71.50
2017-09-07T18:38:02.816Z,71.20
2017-09-07T18:40:30.298Z,71.40
2017-09-07T18:42:58.702Z,71.50
2017-09-07T18:45:26.196Z,71.50
2017-09-07T18:47:53.757Z,71.40
2017-09-07T18:50:21.322Z,71.20
2017-09-07T18:52:49.141Z,71.50
2017-09-07T18:55:16.606Z,71.30
2017-09-07T18:57:44.081Z,71.10
2017-09-07T19:00:11.576Z,70.90
2017-09-07T19:02:39.800Z,70.90
2017-09-07T19:05:07.275Z,70.90
2017-09-07T19:07:34.803Z,70.70
2017-09-07T19:10:02.275Z,71.10
2017-09-07T19:12:29.750Z,71.30
2017-09-07T19:14:57.209Z,71.00
2017-09-07T19:17:24.777Z,71.10
2017-09-07T19:19:52.334Z,70.90
2017-09-07T19:22:19.810Z,70.60
2017-09-07T19:24:48.065Z,70.90
2017-09-07T19:27:15.620Z,70.80
2017-09-07T19:29:43.087Z,70.60
2017-09-07T19:32:10.656Z,71.00
2017-09-07T19:34:38.918Z,71.70
2017-09-07T19:37:07.153Z,71.80
2017-09-07T19:39:34.635Z,70.90
2017-09-07T19:42:03.046Z,71.00
2017-09-07T19:44:30.853Z,70.90
2017-09-07T19:46:58.466Z,71.00
2017-09-07T19:49:26.779Z,71.10
2017-09-07T19:51:54.266Z,70.90
2017-09-07T19:54:21.731Z,71.30
2017-09-07T19:56:49.185Z,71.10
2017-09-07T19:59:16.753Z,70.90
2017-09-07T20:01:44.231Z,71.10
2017-09-07T20:04:12.495Z,71.20
2017-09-07T20:06:39.972Z,71.10
2017-09-07T20:09:07.442Z,71.30
2017-09-07T20:11:34.902Z,71.20
2017-09-07T20:14:02.383Z,71.10
2017-09-07T20:16:29.864Z,71.10
2017-09-07T20:18:58.928Z,70.80
2017-09-07T20:21:26.502Z,70.90
2017-09-07T20:23:53.966Z,70.50
2017-09-07T20:26:21.446Z,70.70
2017-09-07T20:28:48.914Z,70.60
2017-09-07T20:31:17.161Z,70.70
2017-09-07T20:33:44.737Z,70.70
2017-09-07T20:36:12.991Z,70.70
2017-09-07T20:38:40.464Z,70.50
2017-09-07T20:41:07.939Z,70.70
2017-09-07T20:43:36.251Z,70.70
2017-09-07T20:46:03.712Z,70.50
2017-09-07T20:48:31.176Z,70.90
2017-09-07T20:50:58.700Z,70.90
2017-09-07T20:53:26.940Z,70.80
2017-09-07T20:55:54.406Z,70.50
2017-09-07T20:58:22.637Z,70.50
2017-09-07T21:00:50.112Z,70.40
2017-09-07T21:03:17.584Z,70.50
2017-09-07T21:05:45.045Z,70.40
2017-09-07T21:08:12.509Z,70.30
2017-09-07T21:10:40.790Z,70.70
2017-09-07T21:13:09.012Z,70.80
2017-09-07T21:15:36.562Z,70.70
2017-09-07T21:18:04.021Z,70.90
2017-09-07T21:20:31.494Z,70.90
2017-09-07T21:22:58.977Z,70.90
2017-09-07T21:25:26.554Z,70.90
2017-09-07T21:27:54.811Z,70.60
2017-09-07T21:30:22.369Z,70.50
2017-09-07T21:32:50.645Z,71.80
2017-09-07T21:35:18.114Z,71.70
2017-09-07T21:37:46.342Z,70.70
2017-09-07T21:40:13.828Z,70.60
2017-09-07T21:42:41.400Z,70.50
2017-09-07T21:45:08.870Z,70.20
2017-09-07T21:47:37.112Z,70.80
2017-09-07T21:50:04.583Z,70.70
2017-09-07T21:52:32.143Z,70.90
2017-09-07T21:54:59.709Z,70.90
2017-09-07T21:57:27.937Z,71.00
2017-09-07T21:59:55.422Z,70.60
2017-09-07T22:02:23.047Z,70.80
2017-09-07T22:04:50.502Z,70.80
2017-09-07T22:07:18.015Z,70.50
2017-09-07T22:09:46.282Z,70.40
2017-09-07T22:12:13.762Z,70.40
2017-09-07T22:14:42.030Z,70.80
2017-09-07T22:17:09.498Z,70.60
2017-09-07T22:19:36.953Z,70.90
2017-09-07T22:22:04.477Z,70.90
2017-09-07T22:24:31.958Z,70.80
2017-09-07T22:27:00.197Z,70.70
2017-09-07T22:29:27.790Z,70.70
2017-09-07T22:31:56.030Z,71.50
2017-09-07T22:34:23.499Z,71.40
2017-09-07T22:36:51.080Z,71.50
2017-09-07T22:39:19.321Z,71.40
2017-09-07T22:41:46.900Z,71.30
2017-09-07T22:44:14.457Z,71.70
2017-09-07T22:46:41.921Z,71.80
2017-09-07T22:49:09.478Z,71.90
2017-09-07T22:51:36.949Z,71.90
2017-09-07T22:54:05.197Z,71.50
2017-09-07T22:56:32.662Z,71.50
2017-09-07T22:59:01.146Z,71.50
2017-09-07T23:01:28.605Z,71.80
2017-09-07T23:03:56.844Z,72.40
2017-09-07T23:06:24.318Z,71.90
2017-09-07T23:08:51.891Z,72.10
2017-09-07T23:11:19.446Z,72.00
2017-09-07T23:13:46.920Z,72.00
2017-09-07T23:16:15.177Z,71.90
2017-09-07T23:18:42.737Z,71.70
2017-09-07T23:21:10.297Z,72.10
2017-09-07T23:23:37.765Z,72.20
2017-09-07T23:26:06.001Z,71.80
2017-09-07T23:28:33.481Z,71.70
2017-09-07T23:31:01.038Z,71.90
2017-09-07T23:33:28.592Z,71.80
2017-09-07T23:35:56.058Z,72.00
2017-09-07T23:38:23.526Z,72.10
2017-09-07T23:40:51.754Z,72.60
2017-09-07T23:43:19.235Z,71.60
2017-09-07T23:45:46.810Z,71.70
2017-09-07T23:48:14.356Z,71.80
2017-09-07T23:50:41.831Z,71.80
2017-09-07T23:53:10.089Z,71.80
2017-09-07T23:55:37.556Z,71.70
2017-09-07T23:58:05.025Z,71.90
